Strona główna
METAR-TAF:

METAR-TAF

Lotnisko :

Port lotniczy Pittsburgh

Pittsburgh, Pensylwania, Stany Zjednoczone

Szerokość geograficzna: 40-30-14N, Długość geograficzna: 080-15-59W, wysokość: 366 m

Aktualna obserwacja pogody

Raport powstał 25 minut temu, godzina 04:51 UTC
Wiatr 3 kt od północno-północny zachód
Temperatura -2°C
Wilgotność 80%
Ciśnienie 1025 hPa
Widzialność: 16.1 km
Przerywane chmury na wysokości 4100 ft

METAR: KPIT 070451Z 33003KT 10SM BKN041 M02/M05 A3026 RMK AO2 SLP266 T10171050 400781017

czas: 00:16 (05:16 UTC)

Prognoza

Raport powstał 2 godziny i 26 minut temu, godzina 02:50 UTC
Prognoza ważna od 07 godzina 02 UTC do 08 godzina 06 UTC
Wiatr 7 kt od północno-północny zachód
Widzialność: 10 km
Przerywane chmury na wysokości 3500 ft
Od 07 godzina 1600 UTC
Wiatr 3 kt z kierunków zmiennych
Widzialność: 10 km
Rozproszone chmury na wysokości 3500 ft

TAF: KPIT 070250Z 0702/0806 34007KT P6SM BKN035 FM071600 VRB03KT P6SM SCT035

Obserwacja i prognoza pogody dla ponad 4000 lotnisk (raport METAR i TAF).

Dostępne stacje oznaczono żółtymi i czerwonymi punktami na mapie.

Najedź kursorem aby zobaczyć nazwę stacji.

Kliknij aby zobaczyć obserwacje i prognozy pogody.

Aby zmienić mapę: kliknij na zielony przycisk z czarnym krzyżykiem, aby powiększyć; na zielony przycisk z myślnikiem, aby pomniejszyć; na zielone strzałki, aby przejść do map sąsiednich.


METAR-TAF: